createdAt,value
2023-03-02T00:01:29.303Z,101095.09
2023-03-02T00:04:02.863Z,101101.09
2023-03-02T00:06:34.138Z,101101.00
2023-03-02T00:09:04.837Z,101111.34
2023-03-02T00:11:35.780Z,101104.34
2023-03-02T00:14:05.553Z,101109.53
2023-03-02T00:16:35.439Z,101096.50
2023-03-02T00:19:07.668Z,101086.94
2023-03-02T00:21:37.294Z,101084.34
2023-03-02T00:24:08.127Z,101083.50
2023-03-02T00:26:38.303Z,101087.03
2023-03-02T00:29:07.941Z,101093.94
2023-03-02T00:31:38.064Z,101081.81
2023-03-02T00:34:10.360Z,101093.06
2023-03-02T00:36:40.512Z,101088.69
2023-03-02T00:39:10.194Z,101090.34
2023-03-02T00:41:39.896Z,101087.66
2023-03-02T00:44:09.506Z,101085.00
2023-03-02T00:46:39.138Z,101087.59
2023-03-02T00:49:11.605Z,101087.50
2023-03-02T00:51:41.220Z,101086.56
2023-03-02T00:54:10.905Z,101084.69
2023-03-02T00:56:40.590Z,101081.13
2023-03-02T00:59:26.663Z,101080.13
2023-03-02T01:02:09.730Z,101075.66
2023-03-02T01:04:43.890Z,101077.34
2023-03-02T01:07:15.549Z,101074.69
2023-03-02T01:09:46.437Z,101073.00
2023-03-02T01:12:16.057Z,101063.50
2023-03-02T01:14:47.365Z,101061.88
2023-03-02T01:17:18.172Z,101050.72
2023-03-02T01:19:50.541Z,101050.78
2023-03-02T01:22:20.650Z,101056.06
2023-03-02T01:24:50.321Z,101050.88
2023-03-02T01:27:19.900Z,101043.13
2023-03-02T01:29:50.756Z,101040.59
2023-03-02T01:32:20.398Z,101040.59
2023-03-02T01:34:53.457Z,101033.63
2023-03-02T01:37:23.400Z,101036.22
2023-03-02T01:39:53.120Z,101026.69
2023-03-02T01:42:22.800Z,101020.66
2023-03-02T01:44:54.210Z,101025.03
2023-03-02T01:47:26.188Z,101013.81
2023-03-02T01:50:26.694Z,101011.28
2023-03-02T01:53:00.525Z,101013.88
2023-03-02T01:55:32.816Z,101006.00
2023-03-02T01:58:03.421Z,101008.56
2023-03-02T02:00:36.137Z,101011.91
2023-03-02T02:03:11.488Z,101011.81
2023-03-02T02:05:46.504Z,101013.38
2023-03-02T02:08:16.652Z,101010.63
2023-03-02T02:10:46.402Z,101015.69
2023-03-02T02:13:16.072Z,101006.94
2023-03-02T02:15:45.693Z,101016.41
2023-03-02T02:18:15.306Z,101010.28
2023-03-02T02:20:48.877Z,101011.09
2023-03-02T02:23:29.064Z,101007.56
2023-03-02T02:26:18.600Z,101014.41
2023-03-02T02:28:57.790Z,101009.09
2023-03-02T02:31:32.809Z,101002.94
2023-03-02T02:34:05.847Z,101001.06
2023-03-02T02:36:40.575Z,101003.59
2023-03-02T02:39:19.283Z,101000.03
2023-03-02T02:41:52.651Z,101006.00
2023-03-02T02:44:22.528Z,101003.31
2023-03-02T02:46:52.188Z,101001.50
2023-03-02T02:49:30.766Z,101003.22
2023-03-02T02:52:00.675Z,100999.72
2023-03-02T02:54:31.751Z,101003.19
2023-03-02T02:57:05.743Z,100997.91
2023-03-02T02:59:39.993Z,101003.09
2023-03-02T03:02:14.178Z,100998.81
2023-03-02T03:04:43.903Z,100998.81
2023-03-02T03:07:16.644Z,100998.78
2023-03-02T03:09:46.456Z,100994.44
2023-03-02T03:12:20.485Z,100990.09
2023-03-02T03:14:50.691Z,100985.81
2023-03-02T03:17:20.273Z,100987.53
2023-03-02T03:20:06.671Z,100986.72
2023-03-02T03:22:40.248Z,100982.47
2023-03-02T03:25:15.623Z,100985.19
2023-03-02T03:27:50.436Z,100982.66
2023-03-02T03:30:22.296Z,100981.84
2023-03-02T03:32:52.362Z,100981.88
2023-03-02T03:35:22.342Z,100987.09
2023-03-02T03:37:52.359Z,100976.00
2023-03-02T03:40:22.957Z,100978.75
2023-03-02T03:42:56.181Z,100980.66
2023-03-02T03:45:26.056Z,100983.34
2023-03-02T03:47:55.683Z,100977.34
2023-03-02T03:50:25.386Z,100980.06
2023-03-02T03:52:54.999Z,100982.69
2023-03-02T03:55:30.199Z,100981.00
2023-03-02T03:58:03.021Z,100984.47
2023-03-02T04:00:33.132Z,100980.22
2023-03-02T04:03:08.787Z,100980.28
2023-03-02T04:05:38.600Z,100984.69
2023-03-02T04:08:09.042Z,100979.50
2023-03-02T04:10:39.712Z,100979.50
2023-03-02T04:13:12.327Z,100976.00
2023-03-02T04:15:43.957Z,100975.94
2023-03-02T04:18:15.181Z,100978.47
2023-03-02T04:20:44.865Z,100976.75
2023-03-02T04:23:15.548Z,100981.03
2023-03-02T04:25:45.592Z,100981.03
2023-03-02T04:28:21.759Z,100984.47
2023-03-02T04:30:52.317Z,100980.94
2023-03-02T04:33:21.931Z,100983.53
2023-03-02T04:35:52.289Z,100981.84
2023-03-02T04:38:21.874Z,100976.75
2023-03-02T04:40:51.781Z,100974.22
2023-03-02T04:43:23.991Z,100975.19
2023-03-02T04:45:53.656Z,100978.75
2023-03-02T04:48:24.375Z,100973.69
2023-03-02T04:50:54.006Z,100968.56
2023-03-02T04:53:23.621Z,100967.75
2023-03-02T04:55:53.258Z,100969.50
2023-03-02T04:58:25.430Z,100968.69
2023-03-02T05:01:02.122Z,100965.25
2023-03-02T05:03:31.752Z,100967.88
2023-03-02T05:06:02.284Z,100970.50
2023-03-02T05:08:31.940Z,100971.38
2023-03-02T05:11:01.548Z,100963.56
2023-03-02T05:13:33.725Z,100969.63
2023-03-02T05:16:03.735Z,100968.72
2023-03-02T05:18:33.336Z,100973.06
2023-03-02T05:21:02.944Z,100965.28
2023-03-02T05:23:32.526Z,100963.59
2023-03-02T05:26:02.506Z,100956.63
2023-03-02T05:28:35.070Z,100954.94
2023-03-02T05:31:05.106Z,100955.78
2023-03-02T05:33:34.736Z,100954.94
2023-03-02T05:36:04.475Z,100954.97
2023-03-02T05:38:34.598Z,100961.94
2023-03-02T05:41:04.221Z,100960.19
2023-03-02T05:43:36.432Z,100959.34
2023-03-02T05:46:06.187Z,100960.28
2023-03-02T05:48:35.818Z,100957.69
2023-03-02T05:51:05.539Z,100962.03
2023-03-02T05:53:35.122Z,100963.81
2023-03-02T05:56:04.716Z,100967.28
2023-03-02T05:58:36.903Z,100970.78
2023-03-02T06:01:12.256Z,100969.88
2023-03-02T06:03:44.551Z,100966.41
2023-03-02T06:06:15.130Z,100981.16
2023-03-02T06:08:45.263Z,100980.28
2023-03-02T06:11:14.887Z,100992.38
2023-03-02T06:13:47.165Z,100978.44
2023-03-02T06:16:16.936Z,100985.34
2023-03-02T06:18:46.853Z,100989.63
2023-03-02T06:21:17.112Z,100977.47
2023-03-02T06:23:46.707Z,100985.25
2023-03-02T06:26:16.719Z,100980.91
2023-03-02T06:28:53.301Z,100987.00
2023-03-02T06:31:23.566Z,100989.63
2023-03-02T06:33:53.495Z,100992.25
2023-03-02T06:36:23.321Z,100987.06
2023-03-02T06:38:53.393Z,100988.91
2023-03-02T06:41:23.363Z,100985.56
2023-03-02T06:43:55.542Z,100986.56
2023-03-02T06:46:25.141Z,100989.31
2023-03-02T06:48:54.884Z,100995.53
2023-03-02T06:51:24.524Z,100996.53
2023-03-02T06:53:54.140Z,100995.81
2023-03-02T06:56:23.848Z,100996.81
2023-03-02T06:58:56.021Z,100996.94
2023-03-02T07:01:25.702Z,100988.22
2023-03-02T07:03:55.361Z,100992.50
2023-03-02T07:06:24.978Z,100992.16
2023-03-02T07:08:54.610Z,100992.50
2023-03-02T07:11:24.386Z,100991.91
2023-03-02T07:13:56.841Z,100988.66
2023-03-02T07:16:26.481Z,100977.38
2023-03-02T07:18:56.166Z,100981.84
2023-03-02T07:21:25.753Z,100981.66
2023-03-02T07:23:55.363Z,100977.06
2023-03-02T07:26:24.924Z,100961.56
2023-03-02T07:28:59.383Z,100971.16
2023-03-02T07:31:29.160Z,100971.81
2023-03-02T07:33:58.817Z,100976.81
2023-03-02T07:36:28.987Z,100969.13
2023-03-02T07:38:58.560Z,100968.66
2023-03-02T07:41:28.123Z,100961.63
2023-03-02T07:44:01.111Z,100962.53
2023-03-02T07:46:30.859Z,100966.13
2023-03-02T07:49:01.100Z,100964.34
2023-03-02T07:51:30.905Z,100969.56
2023-03-02T07:54:02.874Z,100961.84
2023-03-02T07:56:32.569Z,100961.19
2023-03-02T07:59:04.810Z,100965.78
2023-03-02T08:01:34.786Z,100962.47
2023-03-02T08:04:04.602Z,100965.28
2023-03-02T08:06:34.166Z,100951.94
2023-03-02T08:09:04.881Z,100970.47
2023-03-02T08:11:35.182Z,100956.19
2023-03-02T08:14:07.577Z,100960.72
2023-03-02T08:16:37.448Z,100961.69
2023-03-02T08:19:07.134Z,100966.34
2023-03-02T08:21:36.762Z,100976.38
2023-03-02T08:24:06.884Z,100973.66
2023-03-02T08:26:36.450Z,100970.88
2023-03-02T08:29:09.372Z,100976.56
2023-03-02T08:31:39.186Z,100981.13
2023-03-02T08:34:08.791Z,100971.03
2023-03-02T08:36:38.386Z,100968.84
2023-03-02T08:39:08.006Z,100957.44
2023-03-02T08:41:37.611Z,100970.56
2023-03-02T08:44:10.052Z,100954.72
2023-03-02T08:46:39.638Z,100953.47
2023-03-02T08:49:09.275Z,100956.75
2023-03-02T08:51:39.002Z,100968.22
2023-03-02T08:54:08.678Z,100954.53
2023-03-02T08:56:40.263Z,100961.78
2023-03-02T08:59:15.085Z,100956.13
2023-03-02T09:01:44.898Z,100957.94
2023-03-02T09:04:14.599Z,100955.41
2023-03-02T09:06:47.454Z,100957.91
2023-03-02T09:09:17.858Z,100961.91
2023-03-02T09:11:47.831Z,100961.47
2023-03-02T09:14:20.021Z,100952.78
2023-03-02T09:16:49.677Z,100945.69
2023-03-02T09:19:19.242Z,100943.31
2023-03-02T09:21:49.879Z,100944.16
2023-03-02T09:24:19.487Z,100942.97
2023-03-02T09:26:49.081Z,100933.41
2023-03-02T09:29:21.236Z,100936.94
2023-03-02T09:31:50.867Z,100933.09
2023-03-02T09:34:20.546Z,100933.22
2023-03-02T09:36:50.242Z,100931.69
2023-03-02T09:39:19.785Z,100931.03
2023-03-02T09:42:14.602Z,100930.84
2023-03-02T09:45:18.963Z,100933.00
2023-03-02T09:47:55.330Z,100926.22
2023-03-02T09:50:30.447Z,100934.66
2023-03-02T09:53:12.258Z,100928.47
2023-03-02T09:55:41.908Z,100923.28
2023-03-02T09:58:17.853Z,100917.72
2023-03-02T10:00:50.639Z,100913.56
2023-03-02T10:03:22.594Z,100920.53
2023-03-02T10:05:54.080Z,100915.81
2023-03-02T10:08:25.988Z,100914.06
2023-03-02T10:11:01.568Z,100919.13
2023-03-02T10:13:32.520Z,100924.81
2023-03-02T10:16:18.251Z,100920.47
2023-03-02T10:18:50.229Z,100916.00
2023-03-02T10:21:24.972Z,100927.31
2023-03-02T10:23:59.096Z,100920.97
2023-03-02T10:26:34.657Z,100921.38
2023-03-02T10:29:14.477Z,100922.31
2023-03-02T10:31:49.706Z,100916.88
2023-03-02T10:34:19.555Z,100912.22
2023-03-02T10:36:49.803Z,100919.06
2023-03-02T10:39:20.484Z,100919.34
2023-03-02T10:41:53.756Z,100917.81
2023-03-02T10:44:26.027Z,100916.56
2023-03-02T10:46:59.257Z,100918.84
2023-03-02T10:49:31.217Z,100925.25
2023-03-02T10:52:03.383Z,100920.81
2023-03-02T10:54:34.063Z,100919.03
2023-03-02T10:57:05.953Z,100923.31
2023-03-02T10:59:47.054Z,100918.69
2023-03-02T11:02:23.496Z,100912.38
2023-03-02T11:04:57.992Z,100915.56
2023-03-02T11:07:29.006Z,100909.09
2023-03-02T11:10:03.183Z,100919.09
2023-03-02T11:12:32.745Z,100908.78
2023-03-02T11:15:19.749Z,100912.47
2023-03-02T11:17:54.509Z,100907.53
2023-03-02T11:20:28.378Z,100905.09
2023-03-02T11:23:06.763Z,100910.63
2023-03-02T11:25:40.190Z,100911.56
2023-03-02T11:28:17.162Z,100900.19
2023-03-02T11:30:50.310Z,100904.75
2023-03-02T11:33:25.060Z,100921.56
2023-03-02T11:35:58.266Z,100906.72
2023-03-02T11:38:30.746Z,100911.19
2023-03-02T11:41:03.160Z,100899.75
2023-03-02T11:43:33.116Z,100896.25
2023-03-02T11:46:14.020Z,100898.00
2023-03-02T11:48:54.569Z,100906.88
2023-03-02T11:51:25.777Z,100896.53
2023-03-02T11:53:59.336Z,100902.13
2023-03-02T11:56:31.361Z,100892.66
2023-03-02T11:59:04.722Z,100904.31
2023-03-02T12:01:38.018Z,100908.91
2023-03-02T12:04:27.314Z,100903.81
2023-03-02T12:06:57.230Z,100884.63
2023-03-02T12:09:37.175Z,100895.09
2023-03-02T12:12:35.381Z,100889.72
2023-03-02T12:15:05.586Z,100910.03
2023-03-02T12:17:36.923Z,100890.75
2023-03-02T12:20:27.060Z,100882.81
2023-03-02T12:22:57.318Z,100887.09
2023-03-02T12:25:32.051Z,100884.38
2023-03-02T12:28:01.632Z,100880.81
2023-03-02T12:30:31.715Z,100880.72
2023-03-02T12:33:04.714Z,100874.50
2023-03-02T12:35:37.808Z,100880.50
2023-03-02T12:38:09.196Z,100876.06
2023-03-02T12:40:48.200Z,100878.66
2023-03-02T12:43:30.795Z,100859.25
2023-03-02T12:46:28.601Z,100868.88
2023-03-02T12:49:17.547Z,100863.53
2023-03-02T12:51:54.191Z,100850.25
2023-03-02T12:54:25.587Z,100845.69
2023-03-02T12:57:08.792Z,100850.78
2023-03-02T12:59:39.378Z,100853.22
2023-03-02T13:02:17.211Z,100841.59
2023-03-02T13:04:47.251Z,100838.75
2023-03-02T13:07:22.614Z,100833.34
2023-03-02T13:09:57.231Z,100826.28
2023-03-02T13:12:29.588Z,100825.19
2023-03-02T13:15:01.238Z,100824.31
2023-03-02T13:17:32.841Z,100820.75
2023-03-02T13:20:03.592Z,100823.19
2023-03-02T13:22:35.897Z,100809.03
2023-03-02T13:25:08.301Z,100812.53
2023-03-02T13:27:37.908Z,100802.06
2023-03-02T13:30:24.913Z,100797.63
2023-03-02T13:32:54.692Z,100800.16
2023-03-02T13:35:26.727Z,100794.78
2023-03-02T13:38:04.606Z,100793.81
2023-03-02T13:40:40.031Z,100805.19
2023-03-02T13:43:23.735Z,100805.16
2023-03-02T13:45:57.793Z,100792.81
2023-03-02T13:48:27.778Z,100798.03
2023-03-02T13:50:59.416Z,100799.78
2023-03-02T13:53:38.254Z,100798.84
2023-03-02T13:56:08.566Z,100785.69
2023-03-02T13:58:41.040Z,100791.75
2023-03-02T14:01:10.819Z,100775.00
2023-03-02T14:03:40.567Z,100784.63
2023-03-02T14:06:11.142Z,100774.91
2023-03-02T14:08:43.409Z,100784.56
2023-03-02T14:11:13.814Z,100778.38
2023-03-02T14:13:45.222Z,100768.66
2023-03-02T14:16:15.503Z,100765.97
2023-03-02T14:18:47.560Z,100762.44
2023-03-02T14:21:19.019Z,100768.50
2023-03-02T14:23:52.655Z,100773.78
2023-03-02T14:26:30.640Z,100757.91
2023-03-02T14:29:05.692Z,100757.91
2023-03-02T14:31:36.153Z,100756.19
2023-03-02T14:34:05.974Z,100752.66
2023-03-02T14:36:37.065Z,100752.66
2023-03-02T14:39:14.076Z,100768.50
2023-03-02T14:41:52.932Z,100750.00
2023-03-02T14:44:24.079Z,100750.78
2023-03-02T14:46:53.682Z,100749.06
2023-03-02T14:49:23.368Z,100750.78
2023-03-02T14:51:58.785Z,100741.06
2023-03-02T14:54:34.362Z,100733.97
2023-03-02T14:57:06.267Z,100732.13
2023-03-02T14:59:35.851Z,100737.41
2023-03-02T15:02:15.859Z,100744.56
2023-03-02T15:04:56.599Z,100738.50
2023-03-02T15:07:27.308Z,100749.09
2023-03-02T15:10:00.366Z,100735.91
2023-03-02T15:12:29.991Z,100742.97
2023-03-02T15:14:59.659Z,100742.06
2023-03-02T15:17:29.522Z,100756.13
2023-03-02T15:19:59.141Z,100738.59
2023-03-02T15:22:28.731Z,100743.09
2023-03-02T15:25:00.954Z,100753.66
2023-03-02T15:27:30.525Z,100742.41
2023-03-02T15:30:00.107Z,100740.66
2023-03-02T15:32:29.770Z,100742.47
2023-03-02T15:34:59.394Z,100749.53
2023-03-02T15:37:28.979Z,100731.13
2023-03-02T15:40:01.257Z,100746.97
2023-03-02T15:42:30.872Z,100741.72
2023-03-02T15:45:00.506Z,100737.41
2023-03-02T15:47:30.092Z,100732.16
2023-03-02T15:49:59.704Z,100744.59
2023-03-02T15:52:29.351Z,100728.03
2023-03-02T15:55:01.564Z,100738.69
2023-03-02T15:57:31.182Z,100737.00
2023-03-02T16:00:01.207Z,100737.09
2023-03-02T16:02:30.967Z,100740.66
2023-03-02T16:05:00.576Z,100738.97
2023-03-02T16:07:30.267Z,100745.13
2023-03-02T16:10:02.487Z,100748.75
2023-03-02T16:12:32.056Z,100746.13
2023-03-02T16:15:01.720Z,100746.25
2023-03-02T16:17:31.404Z,100741.88
2023-03-02T16:20:01.057Z,100756.97
2023-03-02T16:22:30.693Z,100749.16
2023-03-02T16:25:02.881Z,100759.00
2023-03-02T16:27:33.080Z,100756.47
2023-03-02T16:30:02.640Z,100755.75
2023-03-02T16:32:34.074Z,100760.31
2023-03-02T16:35:03.672Z,100750.75
2023-03-02T16:37:33.323Z,100764.06
2023-03-02T16:40:05.502Z,100758.06
2023-03-02T16:42:35.138Z,100759.16
2023-03-02T16:45:04.967Z,100762.88
2023-03-02T16:47:34.586Z,100773.56
2023-03-02T16:50:05.189Z,100774.66
2023-03-02T16:52:34.951Z,100779.22
2023-03-02T16:55:10.621Z,100776.72
2023-03-02T16:57:40.269Z,100776.03
2023-03-02T17:00:13.980Z,100776.13
2023-03-02T17:02:43.553Z,100784.16
2023-03-02T17:05:14.233Z,100784.25
2023-03-02T17:07:43.829Z,100790.50
2023-03-02T17:10:19.673Z,100786.34
2023-03-02T17:12:49.280Z,100792.66
2023-03-02T17:15:19.144Z,100798.97
2023-03-02T17:17:48.728Z,100795.63
2023-03-02T17:20:18.869Z,100803.63
2023-03-02T17:22:48.512Z,100804.72
2023-03-02T17:25:21.047Z,100818.91
2023-03-02T17:27:50.711Z,100817.34
2023-03-02T17:30:20.950Z,100812.25
2023-03-02T17:32:50.578Z,100818.56
2023-03-02T17:35:20.164Z,100821.28
2023-03-02T17:37:49.808Z,100831.97
2023-03-02T17:40:22.325Z,100833.00
2023-03-02T17:42:54.537Z,100830.47
2023-03-02T17:45:28.072Z,100835.91
2023-03-02T17:48:01.371Z,100843.06
2023-03-02T17:50:31.873Z,100838.81
2023-03-02T17:53:02.278Z,100844.22
2023-03-02T17:55:34.583Z,100849.53
2023-03-02T17:58:04.272Z,100855.69
2023-03-02T18:00:34.008Z,100855.75
2023-03-02T18:03:03.688Z,100861.09
2023-03-02T18:05:33.371Z,100863.75
2023-03-02T18:08:02.968Z,100859.44
2023-03-02T18:10:35.162Z,100872.63
2023-03-02T18:13:04.748Z,100866.56
2023-03-02T18:15:34.551Z,100872.75
2023-03-02T18:18:04.285Z,100864.03
2023-03-02T18:20:34.376Z,100871.97
2023-03-02T18:23:04.342Z,100870.28
2023-03-02T18:25:36.686Z,100872.97
2023-03-02T18:28:06.327Z,100897.59
2023-03-02T18:30:36.000Z,100879.25
2023-03-02T18:33:05.653Z,100872.28
2023-03-02T18:35:35.297Z,100875.78
2023-03-02T18:38:05.090Z,100875.81
2023-03-02T18:40:37.442Z,100884.66
2023-03-02T18:43:07.076Z,100889.09
2023-03-02T18:45:36.962Z,100883.94
2023-03-02T18:48:07.400Z,100896.31
2023-03-02T18:50:37.111Z,100891.06
2023-03-02T18:53:08.687Z,100899.91
2023-03-02T18:55:41.030Z,100913.16
2023-03-02T18:58:11.063Z,100893.97
2023-03-02T19:00:41.358Z,100908.06
2023-03-02T19:03:11.027Z,100909.91
2023-03-02T19:05:40.843Z,100906.50
2023-03-02T19:08:10.805Z,100915.31
2023-03-02T19:10:43.294Z,100919.72
2023-03-02T19:13:13.336Z,100916.34
2023-03-02T19:15:43.308Z,100910.28
2023-03-02T19:18:16.218Z,100904.22
2023-03-02T19:20:46.133Z,100904.25
2023-03-02T19:23:16.114Z,100919.16
2023-03-02T19:25:48.529Z,100912.25
2023-03-02T19:28:18.147Z,100921.88
2023-03-02T19:30:47.720Z,100924.56
2023-03-02T19:33:17.357Z,100915.03
2023-03-02T19:35:47.263Z,100916.81
2023-03-02T19:38:18.312Z,100913.38
2023-03-02T19:40:50.534Z,100916.06
2023-03-02T19:43:20.397Z,100922.19
2023-03-02T19:45:50.039Z,100914.34
2023-03-02T19:48:19.735Z,100924.03
2023-03-02T19:50:49.559Z,100910.94
2023-03-02T19:53:19.335Z,100916.22
2023-03-02T19:55:52.699Z,100913.63
2023-03-02T19:58:23.713Z,100927.63
2023-03-02T20:00:53.404Z,100932.06
2023-03-02T20:03:23.239Z,100925.09
2023-03-02T20:05:53.351Z,100935.56
2023-03-02T20:08:24.054Z,100943.47
2023-03-02T20:10:56.334Z,100941.72
2023-03-02T20:13:27.254Z,100932.16
2023-03-02T20:15:56.944Z,100946.13
2023-03-02T20:18:26.541Z,100947.03
2023-03-02T20:20:56.230Z,100955.78
2023-03-02T20:23:25.822Z,100964.53
2023-03-02T20:25:58.417Z,100967.16
2023-03-02T20:28:28.222Z,100967.19
2023-03-02T20:30:59.373Z,100963.75
2023-03-02T20:33:32.312Z,100966.38
2023-03-02T20:36:03.179Z,100977.72
2023-03-02T20:38:35.036Z,100972.50
2023-03-02T20:41:07.972Z,100974.25
2023-03-02T20:43:37.691Z,100974.25
2023-03-02T20:46:08.390Z,100976.00
2023-03-02T20:48:38.623Z,100969.03
2023-03-02T20:51:08.514Z,100962.06
2023-03-02T20:53:38.117Z,100972.53
2023-03-02T20:56:11.358Z,100975.16
2023-03-02T20:58:41.518Z,100970.81
2023-03-02T21:01:11.260Z,100978.66
2023-03-02T21:03:41.154Z,100976.06
2023-03-02T21:06:11.043Z,100971.72
2023-03-02T21:08:41.523Z,100970.81
2023-03-02T21:11:16.322Z,100964.72
2023-03-02T21:13:48.115Z,100967.34
2023-03-02T21:16:23.009Z,100964.72
2023-03-02T21:18:52.639Z,100965.63
2023-03-02T21:21:32.517Z,100966.47
2023-03-02T21:24:05.477Z,100964.75
2023-03-02T21:26:37.805Z,100958.63
2023-03-02T21:29:09.475Z,100958.63
2023-03-02T21:31:39.429Z,100952.53
2023-03-02T21:34:09.081Z,100956.03
2023-03-02T21:36:39.157Z,100958.59
2023-03-02T21:39:09.729Z,100949.94
2023-03-02T21:41:42.137Z,100960.34
2023-03-02T21:44:12.531Z,100958.63
2023-03-02T21:46:42.283Z,100960.34
2023-03-02T21:49:12.093Z,100949.91
2023-03-02T21:51:41.771Z,100951.63
2023-03-02T21:54:12.012Z,100954.22
2023-03-02T21:56:44.563Z,100955.94
2023-03-02T21:59:15.066Z,100956.78
2023-03-02T22:01:44.812Z,100954.13
2023-03-02T22:04:14.462Z,100961.03
2023-03-02T22:06:44.104Z,100955.78
2023-03-02T22:09:14.469Z,100958.34
2023-03-02T22:11:47.636Z,100963.53
2023-03-02T22:14:19.515Z,100966.94
2023-03-02T22:16:49.998Z,100965.19
2023-03-02T22:19:28.110Z,100961.66
2023-03-02T22:21:59.957Z,100972.03
2023-03-02T22:24:31.443Z,100967.66
2023-03-02T22:27:13.408Z,100970.31
2023-03-02T22:29:44.168Z,100963.34
2023-03-02T22:32:18.235Z,100965.09
2023-03-02T22:34:48.948Z,100970.31
2023-03-02T22:37:20.444Z,100970.31
2023-03-02T22:39:51.096Z,100974.69
2023-03-02T22:42:25.266Z,100984.22
2023-03-02T22:45:02.727Z,100978.97
2023-03-02T22:47:32.337Z,100986.72
2023-03-02T22:50:09.184Z,100985.78
2023-03-02T22:52:43.865Z,100983.94
2023-03-02T22:55:32.742Z,100989.09
2023-03-02T22:58:20.845Z,100991.59
2023-03-02T23:00:51.111Z,100988.09
2023-03-02T23:03:21.856Z,100986.31
2023-03-02T23:05:53.468Z,100993.22
2023-03-02T23:08:25.807Z,100993.22
2023-03-02T23:10:57.682Z,100996.75
2023-03-02T23:13:41.783Z,100996.75
2023-03-02T23:16:17.565Z,101001.13
2023-03-02T23:18:47.969Z,100999.44
2023-03-02T23:21:20.266Z,101001.19
2023-03-02T23:23:50.225Z,100998.53
2023-03-02T23:26:20.417Z,101002.88
2023-03-02T23:28:53.827Z,101004.56
2023-03-02T23:31:23.897Z,101005.41
2023-03-02T23:33:53.518Z,101014.03
2023-03-02T23:36:23.388Z,101015.72
2023-03-02T23:38:53.275Z,101019.13
2023-03-02T23:41:22.980Z,101007.75
2023-03-02T23:43:55.202Z,101016.41
2023-03-02T23:46:24.855Z,101016.34
2023-03-02T23:48:56.147Z,101005.00
2023-03-02T23:51:26.261Z,101007.50
2023-03-02T23:53:56.310Z,101016.94
2023-03-02T23:56:26.106Z,101009.09
2023-03-02T23:58:58.518Z,101013.41
